VGHS Airport Informations

Runway Information
Airport Frequencies
Airport Navaids
Airport Weather Information & NOTAM
ADDS - METARS form results

(2129 UTC 19 August 2022)
Data provider http://aviationweather.gov/metar/data/
 
METAR text: VGHS 192100Z 11010KT 3500 HZ SCT010 BKN100 28/23 Q1002 TEMPO RA
Conditions at: VGHS (DHAKA , BD) observed 2100 UTC 19 August 2022
Temperature: 28.0°C (82°F)
Dewpoint: 23.0°C (73°F) [RH = 74%]
Pressure (altimeter): 29.59 inches Hg (1002.0 mb)
Winds: from the ESE (110 degrees) at 12 MPH (10 knots; 5.1 m/s)
Visibility: 2.17 miles (3.49 km)
Ceiling: 10000 feet AGL
Clouds: scattered clouds at 1000 feet AGL
broken clouds at 10000 feet AGL
Weather: HZ  (haze)

METAR text: VGHS 192030Z 11012KT 3500 HZ SCT012 BKN100 28/23 Q1002 NOSIG
Conditions at: VGHS (DHAKA , BD) observed 2030 UTC 19 August 2022
Temperature: 28.0°C (82°F)
Dewpoint: 23.0°C (73°F) [RH = 74%]
Pressure (altimeter): 29.59 inches Hg (1002.0 mb)
Winds: from the ESE (110 degrees) at 14 MPH (12 knots; 6.2 m/s)
Visibility: 2.17 miles (3.49 km)
Ceiling: 10000 feet AGL
Clouds: scattered clouds at 1200 feet AGL
broken clouds at 10000 feet AGL
Weather: HZ  (haze)

Forecast for: VGHS (DHAKA , BD)
Text: TAF VGHS 191700Z 1918/2024 12012KT 3500 HZ SCT012 BKN100
Forecast period: 1800 UTC 19 August 2022 to 1000 UTC 20 August 2022
Forecast type: FROM: standard forecast or significant change
Winds: from the ESE (120 degrees) at 14 MPH (12 knots; 6.2 m/s)
Visibility: 2.17 miles (3.49 km)
Ceiling: 10000 feet AGL
Clouds: scattered clouds at 1200 feet AGL
broken clouds at 10000 feet AGL
Weather: HZ  (haze)
Text: TEMPO 1920/2010 12025KT 2000 RA/TSRA BKN008 FEW025CB OVC090
Forecast period: 2000 UTC 19 August 2022 to 1000 UTC 20 August 2022
Forecast type: TEMPORARY: The following changes expected for less than half the time period
Winds: from the ESE (120 degrees) at 29 MPH (25 knots; 12.9 m/s)
Visibility: 1.24 miles (2.00 km)
Ceiling: 800 feet AGL
Clouds: broken clouds at 800 feet AGL
few clouds at 2500 feet AGL
overcast cloud deck at 9000 feet AGL
Weather: TSRA RA  (rain associated with thunderstorm(s), moderate rain)
Text: BECMG 2010/2012 15010KT 4000 HZ SCT015 BKN100
Forecast period: 1000 to 1800 UTC 20 August 2022
Forecast type: BECOMING: Conditions expected to become as follows by 1200 UTC 20 August 2022
Winds: from the SSE (150 degrees) at 12 MPH (10 knots; 5.1 m/s)
Visibility: 2.49 miles (4.01 km)
Ceiling: 10000 feet AGL
Clouds: scattered clouds at 1500 feet AGL
broken clouds at 10000 feet AGL
Weather: HZ  (haze)
Text: BECMG 2018/2020 14006KT 3500 HZ SCT012 BKN100
Forecast period: 1800 UTC 20 August 2022 to 0000 UTC 21 August 2022
Forecast type: BECOMING: Conditions expected to become as follows by 2000 UTC 20 August 2022
Winds: from the SE (140 degrees) at 7 MPH (6 knots; 3.1 m/s)
Visibility: 2.17 miles (3.49 km)
Ceiling: 10000 feet AGL
Clouds: scattered clouds at 1200 feet AGL
broken clouds at 10000 feet AGL
Weather: HZ  (haze)